createdAt,value
2023-09-08T00:01:13.528Z,101851.58
2023-09-08T00:06:20.816Z,101851.24
2023-09-08T00:11:27.994Z,101851.70
2023-09-08T00:16:35.241Z,101846.21
2023-09-08T00:21:44.572Z,101845.11
2023-09-08T00:26:51.684Z,101840.89
2023-09-08T00:31:58.981Z,101837.39
2023-09-08T00:37:08.563Z,101841.05
2023-09-08T00:42:15.789Z,101841.30
2023-09-08T00:47:23.097Z,101842.73
2023-09-08T00:52:33.648Z,101843.90
2023-09-08T00:57:41.151Z,101840.79
2023-09-08T01:02:49.511Z,101838.92
2023-09-08T01:07:58.232Z,101834.97
2023-09-08T01:13:05.787Z,101835.36
2023-09-08T01:18:13.770Z,101834.45
2023-09-08T01:23:29.686Z,101840.52
2023-09-08T01:28:38.305Z,101835.09
2023-09-08T01:33:47.733Z,101832.56
2023-09-08T01:38:54.911Z,101828.92
2023-09-08T01:44:06.559Z,101825.58
2023-09-08T01:49:14.866Z,101820.13
2023-09-08T01:54:22.990Z,101818.25
2023-09-08T01:59:30.125Z,101816.27
2023-09-08T02:04:37.183Z,101816.27
2023-09-08T02:09:45.572Z,101818.79
2023-09-08T02:14:53.416Z,101816.91
2023-09-08T02:20:00.721Z,101818.89
2023-09-08T02:25:09.270Z,101817.71
2023-09-08T02:30:17.227Z,101814.65
2023-09-08T02:35:25.457Z,101814.21
2023-09-08T02:40:35.429Z,101810.48
2023-09-08T02:45:44.160Z,101805.27
2023-09-08T02:50:51.333Z,101803.50
2023-09-08T02:55:58.655Z,101799.81
2023-09-08T03:01:15.874Z,101801.94
2023-09-08T03:06:24.161Z,101798.30
2023-09-08T03:11:30.966Z,101796.82
2023-09-08T03:16:38.099Z,101790.11
2023-09-08T03:21:45.294Z,101788.42
2023-09-08T03:26:52.517Z,101787.77
2023-09-08T03:31:59.845Z,101785.08
2023-09-08T03:37:07.298Z,101789.08
2023-09-08T03:42:14.863Z,101788.08
2023-09-08T03:47:22.153Z,101788.98
2023-09-08T03:52:29.518Z,101788.77
2023-09-08T03:57:36.644Z,101787.20
2023-09-08T04:02:43.675Z,101786.58
2023-09-08T04:07:50.849Z,101789.60
2023-09-08T04:12:58.242Z,101794.13
2023-09-08T04:18:04.448Z,101795.71
2023-09-08T04:23:11.876Z,101792.26
2023-09-08T04:28:19.154Z,101793.73
2023-09-08T04:33:27.443Z,101792.92
2023-09-08T04:38:34.647Z,101788.26
2023-09-08T04:43:41.715Z,101793.94
2023-09-08T04:48:49.812Z,101798.20
2023-09-08T04:53:57.866Z,101796.43
2023-09-08T04:59:05.044Z,101796.95
2023-09-08T05:04:12.542Z,101795.48
2023-09-08T05:09:19.885Z,101794.75
2023-09-08T05:14:27.255Z,101796.48
2023-09-08T05:19:33.264Z,101797.59
2023-09-08T05:24:40.785Z,101798.58
2023-09-08T05:29:48.052Z,101801.66
2023-09-08T05:34:55.252Z,101796.34
2023-09-08T05:40:01.456Z,101796.48
2023-09-08T05:45:11.450Z,101797.84
2023-09-08T05:50:19.325Z,101798.61
2023-09-08T05:55:25.276Z,101797.76
2023-09-08T06:00:32.606Z,101800.66
2023-09-08T06:05:40.049Z,101798.05
2023-09-08T06:10:45.581Z,101795.87
2023-09-08T06:15:52.908Z,101794.99
2023-09-08T06:21:00.775Z,101793.79
2023-09-08T06:26:08.032Z,101783.59
2023-09-08T06:31:16.998Z,101777.67
2023-09-08T06:36:33.785Z,101774.23
2023-09-08T06:41:41.138Z,101776.26
2023-09-08T06:46:49.838Z,101770.73
2023-09-08T06:51:57.250Z,101772.59
2023-09-08T06:57:04.641Z,101776.41
2023-09-08T07:02:12.393Z,101775.13
2023-09-08T07:07:21.672Z,101773.13
2023-09-08T07:12:29.947Z,101771.34
2023-09-08T07:17:37.377Z,101766.33
2023-09-08T07:22:44.793Z,101764.14
2023-09-08T07:27:54.053Z,101760.98
2023-09-08T07:33:01.881Z,101762.36
2023-09-08T07:38:09.597Z,101764.83
2023-09-08T07:43:16.914Z,101767.50
2023-09-08T07:48:24.833Z,101771.89
2023-09-08T07:53:32.140Z,101767.64
2023-09-08T07:58:40.950Z,101762.84
2023-09-08T08:03:48.089Z,101761.02
2023-09-08T08:08:55.262Z,101761.28
2023-09-08T08:14:02.319Z,101762.39
2023-09-08T08:19:09.837Z,101763.95
2023-09-08T08:24:17.587Z,101765.50
2023-09-08T08:29:24.821Z,101762.36
2023-09-08T08:34:31.950Z,101760.06
2023-09-08T08:39:39.116Z,101760.01
2023-09-08T08:44:47.068Z,101756.45
2023-09-08T08:49:55.525Z,101755.48
2023-09-08T08:55:05.126Z,101750.98
2023-09-08T09:00:16.719Z,101747.22
2023-09-08T09:05:24.583Z,101748.55
2023-09-08T09:10:33.824Z,101746.26
2023-09-08T09:15:41.660Z,101745.64
2023-09-08T09:20:59.007Z,101748.42
2023-09-08T09:26:07.210Z,101749.80
2023-09-08T09:31:14.656Z,101749.66
2023-09-08T09:36:25.171Z,101746.62
2023-09-08T09:41:33.259Z,101747.13
2023-09-08T09:46:40.771Z,101742.05
2023-09-08T09:51:49.605Z,101741.20
2023-09-08T09:56:56.877Z,101736.38
2023-09-08T10:02:04.820Z,101732.22
2023-09-08T10:07:12.068Z,101720.98
2023-09-08T10:12:20.739Z,101721.14
2023-09-08T10:17:32.901Z,101716.45
2023-09-08T10:22:44.221Z,101712.95
2023-09-08T10:27:52.743Z,101709.88
2023-09-08T10:33:01.700Z,101708.92
2023-09-08T10:38:28.799Z,101708.52
2023-09-08T10:43:37.403Z,101707.58
2023-09-08T10:48:46.689Z,101702.80
2023-09-08T10:53:53.855Z,101696.05
2023-09-08T10:59:02.889Z,101686.89
2023-09-08T11:04:14.486Z,101687.30
2023-09-08T11:09:24.557Z,101684.36
2023-09-08T11:14:31.768Z,101683.02
2023-09-08T11:19:50.734Z,101683.48
2023-09-08T11:24:59.829Z,101679.99
2023-09-08T11:30:08.763Z,101671.58
2023-09-08T11:35:17.484Z,101671.25
2023-09-08T11:40:26.100Z,101664.66
2023-09-08T11:45:37.921Z,101665.29
2023-09-08T11:50:46.277Z,101659.38
2023-09-08T11:55:53.769Z,101658.58
2023-09-08T12:01:01.603Z,101655.41
2023-09-08T12:06:09.100Z,101654.86
2023-09-08T12:11:16.510Z,101648.02
2023-09-08T12:16:24.427Z,101645.38
2023-09-08T12:21:33.237Z,101637.79
2023-09-08T12:26:41.660Z,101630.89
2023-09-08T12:31:48.804Z,101627.88
2023-09-08T12:36:59.045Z,101631.06
2023-09-08T12:42:06.780Z,101624.83
2023-09-08T12:47:15.108Z,101611.70
2023-09-08T12:52:22.212Z,101609.99
2023-09-08T12:57:29.392Z,101604.39
2023-09-08T13:02:37.093Z,101599.08
2023-09-08T13:07:44.401Z,101591.04
2023-09-08T13:12:52.291Z,101592.59
2023-09-08T13:17:59.534Z,101591.22
2023-09-08T13:23:06.879Z,101584.41
2023-09-08T13:28:13.933Z,101578.27
2023-09-08T13:33:21.482Z,101575.40
2023-09-08T13:38:28.752Z,101573.98
2023-09-08T13:43:35.816Z,101566.55
2023-09-08T13:48:44.009Z,101559.65
2023-09-08T13:53:53.173Z,101555.20
2023-09-08T13:59:03.409Z,101555.98
2023-09-08T14:04:11.547Z,101549.27
2023-09-08T14:09:42.591Z,101549.46
2023-09-08T14:14:46.521Z,101544.91
2023-09-08T14:19:53.669Z,101537.98
2023-09-08T14:25:01.144Z,101531.39
2023-09-08T14:30:09.878Z,101528.11
2023-09-08T14:35:17.278Z,101527.24
2023-09-08T14:40:26.256Z,101529.39
2023-09-08T14:45:33.466Z,101525.56
2023-09-08T14:50:40.525Z,101519.60
2023-09-08T14:55:49.734Z,101518.33
2023-09-08T15:00:56.905Z,101521.27
2023-09-08T15:06:04.646Z,101520.83
2023-09-08T15:11:11.930Z,101518.96
2023-09-08T15:16:19.242Z,101515.98
2023-09-08T15:21:31.171Z,101515.34
2023-09-08T15:26:38.597Z,101513.19
2023-09-08T15:31:45.767Z,101507.56
2023-09-08T15:36:53.010Z,101505.58
2023-09-08T15:42:00.157Z,101501.84
2023-09-08T15:47:07.382Z,101503.98
2023-09-08T15:52:16.775Z,101500.77
2023-09-08T15:57:24.290Z,101501.14
2023-09-08T16:02:31.377Z,101501.20
2023-09-08T16:07:39.897Z,101495.23
2023-09-08T16:12:46.905Z,101489.48
2023-09-08T16:17:53.998Z,101486.91
2023-09-08T16:23:01.358Z,101488.81
2023-09-08T16:28:09.927Z,101487.97
2023-09-08T16:33:17.077Z,101484.98
2023-09-08T16:38:24.452Z,101483.48
2023-09-08T16:43:31.759Z,101479.91
2023-09-08T16:48:38.799Z,101471.48
2023-09-08T16:53:45.966Z,101471.81
2023-09-08T16:58:52.990Z,101468.33
2023-09-08T17:03:59.637Z,101467.17
2023-09-08T17:09:07.517Z,101473.77
2023-09-08T17:14:14.641Z,101470.84
2023-09-08T17:19:21.910Z,101480.24
2023-09-08T17:24:29.469Z,101480.77
2023-09-08T17:29:36.676Z,101483.42
2023-09-08T17:34:42.174Z,101484.80
2023-09-08T17:39:51.635Z,101486.92
2023-09-08T17:44:58.852Z,101486.72
2023-09-08T17:50:07.099Z,101491.66
2023-09-08T17:55:15.142Z,101489.13
2023-09-08T18:00:23.089Z,101484.07
2023-09-08T18:05:30.307Z,101487.42
2023-09-08T18:10:36.140Z,101487.81
2023-09-08T18:15:43.309Z,101482.98
2023-09-08T18:20:48.912Z,101486.94
2023-09-08T18:25:56.687Z,101483.11
2023-09-08T18:31:04.126Z,101482.44
2023-09-08T18:36:11.511Z,101484.18
2023-09-08T18:41:19.570Z,101485.20
2023-09-08T18:46:26.817Z,101482.52
2023-09-08T18:51:32.536Z,101479.98
2023-09-08T18:56:39.863Z,101479.98
2023-09-08T19:01:46.972Z,101482.36
2023-09-08T19:06:56.652Z,101479.08
2023-09-08T19:12:04.276Z,101475.06
2023-09-08T19:17:12.627Z,101470.27
2023-09-08T19:22:20.093Z,101468.59
2023-09-08T19:27:27.471Z,101473.09
2023-09-08T19:32:35.665Z,101477.33
2023-09-08T19:37:43.096Z,101471.76
2023-09-08T19:42:49.034Z,101471.17
2023-09-08T19:47:56.462Z,101468.60
2023-09-08T19:53:02.230Z,101468.88
2023-09-08T19:58:09.550Z,101467.05
2023-09-08T20:03:16.873Z,101468.77
2023-09-08T20:08:24.088Z,101465.08
2023-09-08T20:13:31.533Z,101457.27
2023-09-08T20:18:39.423Z,101461.52
2023-09-08T20:23:46.713Z,101461.80
2023-09-08T20:28:54.103Z,101462.50
2023-09-08T20:34:01.265Z,101460.61
2023-09-08T20:39:08.715Z,101458.94
2023-09-08T20:44:16.015Z,101458.70
2023-09-08T20:49:23.423Z,101457.05
2023-09-08T20:54:32.606Z,101461.31
2023-09-08T20:59:40.648Z,101464.80
2023-09-08T21:04:48.516Z,101467.20
2023-09-08T21:09:56.355Z,101460.84
2023-09-08T21:15:03.858Z,101460.17
2023-09-08T21:20:12.435Z,101463.17
2023-09-08T21:25:19.754Z,101460.58
2023-09-08T21:30:26.900Z,101455.94
2023-09-08T21:35:35.096Z,101450.62
2023-09-08T21:40:43.610Z,101449.60
2023-09-08T21:45:52.431Z,101451.31
2023-09-08T21:50:59.766Z,101446.83
2023-09-08T21:56:07.396Z,101448.26
2023-09-08T22:01:16.417Z,101448.65
2023-09-08T22:06:23.772Z,101450.45
2023-09-08T22:11:32.039Z,101448.94
2023-09-08T22:16:39.194Z,101450.26
2023-09-08T22:21:46.504Z,101448.36
2023-09-08T22:26:53.644Z,101448.45
2023-09-08T22:32:00.846Z,101449.92
2023-09-08T22:37:08.264Z,101451.18
2023-09-08T22:42:15.658Z,101453.75
2023-09-08T22:47:23.038Z,101447.77
2023-09-08T22:52:30.738Z,101444.95
2023-09-08T22:57:36.365Z,101447.08
2023-09-08T23:02:44.098Z,101448.69
2023-09-08T23:07:50.110Z,101447.94
2023-09-08T23:12:57.064Z,101445.47
2023-09-08T23:18:04.510Z,101439.63
2023-09-08T23:23:11.688Z,101439.33
2023-09-08T23:28:18.785Z,101434.42
2023-09-08T23:33:26.074Z,101428.59
2023-09-08T23:38:33.254Z,101430.02
2023-09-08T23:43:40.444Z,101429.89
2023-09-08T23:48:47.916Z,101430.79
2023-09-08T23:53:55.121Z,101431.46
2023-09-08T23:59:04.684Z,101430.04
